Time,TemperatureF,DewpointF,PressureIn,WindDirection,WindDirectionDegrees,WindSpeedMPH,WindSpeedGustMPH,Humidity,HourlyPrecipIn,Conditions,Clouds,dailyrainin,SoftwareType,DateUTC
2013-07-23 00:01:00,59.0,57.0,29.98,SW,234,0.0,2.0,92,-99.99,,,-99.99,,2013-07-23 07:01:00,
2013-07-23 00:11:00,59.0,57.0,29.98,SW,234,0.0,2.0,92,-99.99,,,-99.99,,2013-07-23 07:11:00,
2013-07-23 00:21:00,59.0,57.0,29.98,SW,236,2.0,2.0,92,-99.99,,,-99.99,,2013-07-23 07:21:00,
2013-07-23 00:42:00,58.0,56.0,29.98,SW,236,1.0,3.0,92,-99.99,,,-99.99,,2013-07-23 07:42:00,
2013-07-23 01:01:00,58.0,56.0,29.99,WSW,243,0.0,3.0,92,-99.99,,,-99.99,,2013-07-23 08:01:00,
2013-07-23 01:33:00,58.0,56.0,29.98,WSW,243,0.0,2.0,93,-99.99,,,-99.99,,2013-07-23 08:33:00,
2013-07-23 01:43:00,58.0,56.0,29.99,WSW,243,1.0,3.0,93,-99.99,,,-99.99,,2013-07-23 08:43:00,
2013-07-23 01:52:00,58.0,56.0,29.99,WSW,243,1.0,3.0,93,-99.99,,,-99.99,,2013-07-23 08:52:00,
2013-07-23 02:01:00,58.0,56.0,29.99,WSW,243,1.0,3.0,93,-99.99,,,-99.99,,2013-07-23 09:01:00,
2013-07-23 02:22:00,57.0,55.0,29.98,SSW,210,2.0,3.0,94,-99.99,,,-99.99,,2013-07-23 09:22:00,
2013-07-23 02:33:00,57.0,55.0,29.98,SSW,210,2.0,3.0,94,-99.99,,,-99.99,,2013-07-23 09:33:00,
2013-07-23 02:42:00,57.0,55.0,29.98,SSW,210,2.0,3.0,94,-99.99,,,-99.99,,2013-07-23 09:42:00,
2013-07-23 02:52:00,57.0,55.0,29.98,SSW,210,2.0,3.0,94,-99.99,,,-99.99,,2013-07-23 09:52:00,
2013-07-23 03:22:00,57.0,56.0,29.98,SW,229,0.0,3.0,95,-99.99,,,-99.99,,2013-07-23 10:22:00,
2013-07-23 03:44:00,57.0,56.0,29.98,SW,232,0.0,1.0,95,-99.99,,,-99.99,,2013-07-23 10:44:00,
2013-07-23 04:01:00,57.0,56.0,29.98,SW,232,1.0,1.0,95,-99.99,,,-99.99,,2013-07-23 11:01:00,
2013-07-23 04:11:00,57.0,56.0,29.98,SW,232,1.0,1.0,95,-99.99,,,-99.99,,2013-07-23 11:11:00,
2013-07-23 04:21:00,57.0,56.0,29.98,SW,232,1.0,1.0,95,-99.99,,,-99.99,,2013-07-23 11:21:00,
2013-07-23 04:32:00,57.0,56.0,29.99,SW,232,0.0,1.0,95,-99.99,,,-99.99,,2013-07-23 11:32:00,
2013-07-23 04:43:00,57.0,56.0,29.99,SW,232,1.0,2.0,95,-99.99,,,-99.99,,2013-07-23 11:43:00,
2013-07-23 04:52:00,57.0,56.0,29.99,SW,232,1.0,2.0,95,-99.99,,,-99.99,,2013-07-23 11:52:00,
2013-07-23 05:02:00,57.0,56.0,29.99,SW,232,0.0,0.0,95,-99.99,,,-99.99,,2013-07-23 12:02:00,
2013-07-23 05:11:00,57.0,56.0,29.99,SW,232,0.0,0.0,95,-99.99,,,-99.99,,2013-07-23 12:11:00,
2013-07-23 05:33:00,57.0,56.0,29.99,WNW,282,0.0,0.0,95,-99.99,,,-99.99,,2013-07-23 12:33:00,
2013-07-23 05:43:00,58.0,57.0,29.99,SSE,151,0.0,2.0,95,-99.99,,,-99.99,,2013-07-23 12:43:00,
2013-07-23 06:11:00,58.0,57.0,29.98,SW,224,2.0,3.0,95,-99.99,,,-99.99,,2013-07-23 13:11:00,
2013-07-23 06:22:00,57.0,56.0,29.98,SW,226,1.0,5.0,95,-99.99,,,-99.99,,2013-07-23 13:22:00,
2013-07-23 06:32:00,57.0,56.0,29.98,SW,226,1.0,5.0,95,-99.99,,,-99.99,,2013-07-23 13:32:00,
2013-07-23 06:43:00,57.0,56.0,29.98,SW,226,0.0,2.0,96,-99.99,,,-99.99,,2013-07-23 13:43:00,
2013-07-23 06:52:00,57.0,56.0,29.98,SW,226,0.0,2.0,96,-99.99,,,-99.99,,2013-07-23 13:52:00,
2013-07-23 07:02:00,57.0,56.0,29.98,SW,226,1.0,2.0,96,-99.99,,,-99.99,,2013-07-23 14:02:00,
2013-07-23 07:12:00,57.0,56.0,29.98,SW,226,1.0,1.0,96,-99.99,,,-99.99,,2013-07-23 14:12:00,
2013-07-23 07:22:00,57.0,56.0,29.98,NE,56,0.0,2.0,96,-99.99,,,-99.99,,2013-07-23 14:22:00,
2013-07-23 07:32:00,57.0,56.0,29.99,NE,56,0.0,2.0,96,-99.99,,,-99.99,,2013-07-23 14:32:00,
2013-07-23 07:44:00,58.0,57.0,30.01,NE,55,0.0,3.0,96,-99.99,,,-99.99,,2013-07-23 14:44:00,
2013-07-23 07:53:00,58.0,57.0,30.01,NE,55,0.0,3.0,96,-99.99,,,-99.99,,2013-07-23 14:53:00,
2013-07-23 08:03:00,59.0,58.0,29.99,NE,55,1.0,3.0,96,-99.99,,,-99.99,,2013-07-23 15:03:00,
2013-07-23 08:11:00,59.0,58.0,29.99,NE,55,1.0,3.0,96,-99.99,,,-99.99,,2013-07-23 15:11:00,
2013-07-23 08:24:00,60.0,59.0,29.98,WSW,247,2.0,5.0,95,-99.99,,,-99.99,,2013-07-23 15:24:00,
2013-07-23 08:32:00,60.0,59.0,29.98,WSW,247,2.0,5.0,95,-99.99,,,-99.99,,2013-07-23 15:32:00,
2013-07-23 08:43:00,60.0,59.0,29.98,WSW,247,2.0,5.0,95,-99.99,,,-99.99,,2013-07-23 15:43:00,
2013-07-23 08:52:00,60.0,59.0,29.98,WSW,247,2.0,5.0,95,-99.99,,,-99.99,,2013-07-23 15:52:00,
2013-07-23 09:01:00,63.0,59.0,30.00,SSW,202,0.0,2.0,88,-99.99,,,-99.99,,2013-07-23 16:01:00,
2013-07-23 09:22:00,66.0,60.0,30.01,NNE,31,1.0,3.0,80,-99.99,,,-99.99,,2013-07-23 16:22:00,
2013-07-23 09:33:00,69.0,60.0,30.01,WNW,296,2.0,5.0,72,-99.99,,,-99.99,,2013-07-23 16:33:00,
2013-07-23 09:43:00,69.0,59.0,30.01,West,265,3.0,5.0,71,-99.99,,,-99.99,,2013-07-23 16:43:00,
2013-07-23 09:52:00,69.0,59.0,30.00,West,272,0.0,6.0,71,-99.99,,,-99.99,,2013-07-23 16:52:00,
2013-07-23 10:02:00,70.0,60.0,30.00,West,260,3.0,5.0,71,-99.99,,,-99.99,,2013-07-23 17:02:00,
2013-07-23 10:11:00,70.0,60.0,30.00,West,260,3.0,5.0,71,-99.99,,,-99.99,,2013-07-23 17:11:00,
2013-07-23 10:21:00,71.0,59.0,30.00,West,265,5.0,7.0,67,-99.99,,,-99.99,,2013-07-23 17:21:00,
2013-07-23 10:32:00,71.0,59.0,30.00,West,265,5.0,7.0,67,-99.99,,,-99.99,,2013-07-23 17:32:00,
2013-07-23 10:42:00,72.0,61.0,30.00,SW,232,6.0,11.0,68,-99.99,,,-99.99,,2013-07-23 17:42:00,
2013-07-23 10:53:00,72.0,61.0,30.00,SW,232,6.0,11.0,68,-99.99,,,-99.99,,2013-07-23 17:53:00,
2013-07-23 11:02:00,72.0,61.0,30.00,West,268,2.0,7.0,68,-99.99,,,-99.99,,2013-07-23 18:02:00,
2013-07-23 11:11:00,72.0,61.0,30.00,West,268,2.0,7.0,68,-99.99,,,-99.99,,2013-07-23 18:11:00,
2013-07-23 11:32:00,70.0,59.0,30.01,WSW,258,5.0,13.0,68,-99.99,,,-99.99,,2013-07-23 18:32:00,
2013-07-23 11:48:00,70.0,59.0,30.01,SW,227,6.0,11.0,68,-99.99,,,-99.99,,2013-07-23 18:48:00,
2013-07-23 12:01:00,70.0,59.0,30.01,SW,227,6.0,11.0,68,-99.99,,,-99.99,,2013-07-23 19:01:00,
2013-07-23 12:12:00,70.0,59.0,30.01,SW,227,6.0,11.0,68,-99.99,,,-99.99,,2013-07-23 19:12:00,
2013-07-23 12:48:00,69.0,58.0,30.02,WSW,248,8.0,14.0,69,-99.99,,,-99.99,,2013-07-23 19:48:00,
2013-07-23 12:55:00,69.0,58.0,30.02,WSW,248,8.0,14.0,69,-99.99,,,-99.99,,2013-07-23 19:55:00,
2013-07-23 13:03:00,68.0,58.0,30.02,SW,229,8.0,14.0,70,-99.99,,,-99.99,,2013-07-23 20:03:00,
2013-07-23 13:12:00,68.0,58.0,30.02,SW,222,11.0,16.0,71,-99.99,,,-99.99,,2013-07-23 20:12:00,
2013-07-23 13:32:00,69.0,59.0,30.02,SSW,212,10.0,14.0,70,-99.99,,,-99.99,,2013-07-23 20:32:00,
2013-07-23 13:52:00,68.0,58.0,30.02,SW,226,14.0,18.0,71,-99.99,,,-99.99,,2013-07-23 20:52:00,
2013-07-23 14:02:00,67.0,58.0,30.02,SSW,199,11.0,16.0,73,-99.99,,,-99.99,,2013-07-23 21:02:00,
2013-07-23 14:11:00,67.0,58.0,30.02,SSW,199,11.0,16.0,73,-99.99,,,-99.99,,2013-07-23 21:11:00,
2013-07-23 14:22:00,67.0,58.0,30.02,SSW,199,11.0,16.0,73,-99.99,,,-99.99,,2013-07-23 21:22:00,
2013-07-23 14:33:00,67.0,58.0,30.02,SSW,199,11.0,16.0,73,-99.99,,,-99.99,,2013-07-23 21:33:00,
2013-07-23 14:56:00,68.0,59.0,30.02,SW,219,12.0,15.0,73,-99.99,,,-99.99,,2013-07-23 21:56:00,
2013-07-23 15:02:00,68.0,59.0,30.02,SW,219,12.0,15.0,73,-99.99,,,-99.99,,2013-07-23 22:02:00,
2013-07-23 15:11:00,68.0,59.0,30.02,SW,219,12.0,15.0,73,-99.99,,,-99.99,,2013-07-23 22:11:00,
2013-07-23 15:22:00,68.0,59.0,30.02,SW,219,12.0,15.0,73,-99.99,,,-99.99,,2013-07-23 22:22:00,
2013-07-23 16:03:00,69.0,59.0,30.01,WSW,244,6.0,13.0,71,-99.99,,,-99.99,,2013-07-23 23:03:00,
2013-07-23 16:12:00,69.0,59.0,30.01,WSW,244,6.0,13.0,71,-99.99,,,-99.99,,2013-07-23 23:12:00,
2013-07-23 16:23:00,68.0,59.0,30.01,WSW,254,5.0,11.0,72,-99.99,,,-99.99,,2013-07-23 23:23:00,
2013-07-23 16:43:00,68.0,59.0,30.00,SW,227,8.0,16.0,72,-99.99,,,-99.99,,2013-07-23 23:43:00,
2013-07-23 16:53:00,68.0,59.0,30.00,SW,227,8.0,16.0,72,-99.99,,,-99.99,,2013-07-23 23:53:00,
2013-07-23 17:02:00,69.0,59.0,29.99,SW,216,10.0,13.0,70,-99.99,,,-99.99,,2013-07-24 00:02:00,
2013-07-23 17:13:00,69.0,59.0,29.99,SW,216,10.0,13.0,70,-99.99,,,-99.99,,2013-07-24 00:13:00,
2013-07-23 17:22:00,69.0,59.0,30.00,SW,226,6.0,14.0,70,-99.99,,,-99.99,,2013-07-24 00:22:00,
2013-07-23 17:33:00,68.0,58.0,29.99,WSW,247,6.0,14.0,71,-99.99,,,-99.99,,2013-07-24 00:33:00,
2013-07-23 17:43:00,67.0,58.0,29.99,SW,229,11.0,14.0,73,-99.99,,,-99.99,,2013-07-24 00:43:00,
2013-07-23 18:22:00,67.0,58.0,29.99,SW,220,5.0,13.0,74,-99.99,,,-99.99,,2013-07-24 01:22:00,
2013-07-23 18:32:00,67.0,58.0,29.99,SW,220,5.0,13.0,74,-99.99,,,-99.99,,2013-07-24 01:32:00,
2013-07-23 18:43:00,66.0,58.0,29.98,SW,223,9.0,14.0,75,-99.99,,,-99.99,,2013-07-24 01:43:00,
2013-07-23 19:03:00,65.0,58.0,29.98,SW,227,13.0,13.0,78,-99.99,,,-99.99,,2013-07-24 02:03:00,
2013-07-23 19:12:00,65.0,58.0,29.98,SW,227,13.0,13.0,78,-99.99,,,-99.99,,2013-07-24 02:12:00,
2013-07-23 19:33:00,65.0,58.0,29.98,SW,227,13.0,13.0,78,-99.99,,,-99.99,,2013-07-24 02:33:00,
2013-07-23 19:56:00,63.0,57.0,29.99,SW,222,3.0,9.0,81,-99.99,,,-99.99,,2013-07-24 02:56:00,
2013-07-23 20:02:00,63.0,57.0,29.99,SW,222,3.0,9.0,81,-99.99,,,-99.99,,2013-07-24 03:02:00,
2013-07-23 20:22:00,60.0,56.0,30.00,SW,232,6.0,11.0,88,-99.99,,,-99.99,,2013-07-24 03:22:00,
2013-07-23 20:34:00,59.0,56.0,30.00,SW,229,1.0,8.0,91,-99.99,,,-99.99,,2013-07-24 03:34:00,
2013-07-23 20:53:00,58.0,56.0,30.01,SW,224,1.0,6.0,92,-99.99,,,-99.99,,2013-07-24 03:53:00,
2013-07-23 21:01:00,58.0,56.0,30.01,SW,224,1.0,6.0,92,-99.99,,,-99.99,,2013-07-24 04:01:00,
2013-07-23 21:11:00,58.0,56.0,30.01,SW,224,1.0,6.0,92,-99.99,,,-99.99,,2013-07-24 04:11:00,
2013-07-23 21:22:00,58.0,56.0,30.01,SW,224,1.0,6.0,92,-99.99,,,-99.99,,2013-07-24 04:22:00,
2013-07-23 21:32:00,58.0,56.0,30.01,SW,229,2.0,4.0,94,-99.99,,,-99.99,,2013-07-24 04:32:00,
2013-07-23 21:43:00,57.0,56.0,30.01,SW,216,6.0,6.0,95,-99.99,,,-99.99,,2013-07-24 04:43:00,
2013-07-23 21:52:00,57.0,56.0,30.01,SW,216,6.0,6.0,95,-99.99,,,-99.99,,2013-07-24 04:52:00,
2013-07-23 22:02:00,57.0,56.0,30.01,WSW,239,4.0,5.0,95,-99.99,,,-99.99,,2013-07-24 05:02:00,
2013-07-23 22:32:00,57.0,56.0,30.01,SW,223,2.0,5.0,96,-99.99,,,-99.99,,2013-07-24 05:32:00,
2013-07-23 22:43:00,57.0,56.0,30.01,SW,227,2.0,2.0,96,-99.99,,,-99.99,,2013-07-24 05:43:00,
2013-07-23 22:52:00,57.0,56.0,30.01,SW,227,2.0,2.0,96,-99.99,,,-99.99,,2013-07-24 05:52:00,
2013-07-23 23:01:00,57.0,56.0,30.62,SW,227,1.0,3.0,96,-99.99,,,-99.99,,2013-07-24 06:01:00,
2013-07-23 23:11:00,57.0,56.0,30.62,SW,227,1.0,3.0,96,-99.99,,,-99.99,,2013-07-24 06:11:00,
2013-07-23 23:24:00,57.0,56.0,30.62,SW,227,1.0,2.0,97,-99.99,,,-99.99,,2013-07-24 06:24:00,
2013-07-23 23:34:00,57.0,56.0,30.62,SW,227,0.0,1.0,97,-99.99,,,-99.99,,2013-07-24 06:34:00,
2013-07-23 23:43:00,57.0,56.0,30.61,SW,227,0.0,2.0,97,-99.99,,,-99.99,,2013-07-24 06:43:00,
2013-07-23 23:53:00,57.0,56.0,30.61,SW,227,0.0,2.0,97,-99.99,,,-99.99,,2013-07-24 06:53:00,